Portada
METAR-TAF:

METAR-TAF

Aeroports :

Victòria, Mahé, Seychelles

latitud: 04-40S, longitud: 055-31E, altitud: 3 m

Observació

L'informe es va fer fa 17 minuts, a les 16:00 UTC
Vent 3 kt del Sud, variant entre Sud-Est i Sud/Sud-Oest
Temperatura 28°C
Humitat 79%
Pressió 1009 hPa
Visibilitat 10 km o més
Escasses núvols a una alçada de 2100 ft

METAR: FSIA 121600Z 17003KT 140V210 9999 FEW021 28/24 Q1009 NOSIG

Hora: 20:17 (16:17 UTC)

Pronòstic

L'informe es va fer fa 5 hores i 14 minuts, a les 11:03 UTC
Pronòstic vàlid del 12 a les 12 UTC al 13 a les 12 UTC
Vent 5 kt del Sud-Est
Visibilitat 10 km o més
Núvols disperses a una alçada de 2200 ft
Probabilitat 40% :
Temporalment
l' 12 a les 20 UTC al 13 a les 02 UTC
Visibilitat: 8000 m
Escasses núvols a una alçada de 1800 ft, Cumulonimbus.
Cel ennuvolat a una alçada de 2000 ft
xàfecs de pluja

TAF: FSIA 121103Z 1212/1312 13005KT 9999 SCT022 PROB40 TEMPO 1220/1302 8000 -SHRA FEW018CB BKN020

Observacions i pronòstics meteorològics de més de 4000 aeroports (METAR i TAF).

Les estacions disponibles són els punts grocs i vermells al mapa.

Posi el ratolí al punt desitjat per veure el nom de l'estació.

Feu clic per veure les observacions i els pronòstics meteorològics.

Per canviar el mapa: feu clic els botons verds amb una creu de color negre per apropar; al botó verd amb un guió per allunyar la imatge; o en les fletxes verdes per a mapes adjacents.


METAR-TAF: